Time,TemperatureF,DewpointF,PressureIn,WindDirection,WindDirectionDegrees,WindSpeedMPH,WindSpeedGustMPH,Humidity,HourlyPrecipIn,Conditions,Clouds,dailyrainin,SoftwareType,DateUTC
2013-05-04 00:02:00,53.0,43.0,30.12,East,100,0.0,13.0,69,0.00,,,0.00,,2013-05-04 04:02:00,
2013-05-04 00:12:00,53.0,43.0,30.12,East,100,0.0,13.0,69,0.00,,,0.00,,2013-05-04 04:12:00,
2013-05-04 00:23:00,53.0,43.0,30.12,NE,34,0.0,10.0,69,0.00,,,0.00,,2013-05-04 04:23:00,
2013-05-04 00:33:00,53.0,43.0,30.12,East,83,1.0,7.0,70,0.00,,,0.00,,2013-05-04 04:33:00,
2013-05-04 00:42:00,53.0,43.0,30.12,East,83,1.0,7.0,70,0.00,,,0.00,,2013-05-04 04:42:00,
2013-05-04 00:52:00,53.0,43.0,30.11,ENE,60,3.0,10.0,70,0.00,,,0.00,,2013-05-04 04:52:00,
2013-05-04 01:02:00,53.0,44.0,30.11,East,89,3.0,9.0,71,0.00,,,0.00,,2013-05-04 05:02:00,
2013-05-04 01:12:00,52.0,44.0,30.11,NE,46,1.0,10.0,73,0.00,,,0.00,,2013-05-04 05:12:00,
2013-05-04 01:22:00,52.0,44.0,30.11,NE,46,1.0,10.0,73,0.00,,,0.00,,2013-05-04 05:22:00,
2013-05-04 01:32:00,52.0,44.0,30.10,East,91,4.0,7.0,75,0.00,,,0.00,,2013-05-04 05:32:00,
2013-05-04 01:43:00,52.0,44.0,30.10,East,91,4.0,7.0,75,0.00,,,0.00,,2013-05-04 05:43:00,
2013-05-04 01:52:00,51.0,44.0,30.09,East,79,3.0,11.0,76,0.00,,,0.00,,2013-05-04 05:52:00,
2013-05-04 02:01:00,51.0,44.0,30.09,ENE,60,3.0,10.0,78,0.00,,,0.00,,2013-05-04 06:01:00,
2013-05-04 02:11:00,51.0,44.0,30.09,ENE,60,3.0,10.0,78,0.00,,,0.00,,2013-05-04 06:11:00,
2013-05-04 02:21:00,51.0,45.0,30.09,NE,40,0.0,12.0,79,0.00,,,0.00,,2013-05-04 06:21:00,
2013-05-04 02:32:00,51.0,45.0,30.09,East,85,1.0,7.0,80,0.00,,,0.00,,2013-05-04 06:32:00,
2013-05-04 02:42:00,51.0,45.0,30.09,East,85,1.0,7.0,80,0.00,,,0.00,,2013-05-04 06:42:00,
2013-05-04 02:52:00,50.0,45.0,30.09,East,93,0.0,8.0,82,0.00,,,0.00,,2013-05-04 06:52:00,
2013-05-04 03:01:00,50.0,45.0,30.08,North,349,0.0,7.0,83,0.00,,,0.00,,2013-05-04 07:01:00,
2013-05-04 03:11:00,50.0,45.0,30.08,North,349,0.0,7.0,83,0.00,,,0.00,,2013-05-04 07:11:00,
2013-05-04 03:21:00,50.0,45.0,30.07,ENE,59,0.0,7.0,83,0.00,,,0.00,,2013-05-04 07:21:00,
2013-05-04 03:32:00,50.0,45.0,30.07,NE,40,2.0,10.0,84,0.00,,,0.00,,2013-05-04 07:32:00,
2013-05-04 03:42:00,50.0,45.0,30.07,NE,40,2.0,10.0,84,0.00,,,0.00,,2013-05-04 07:42:00,
2013-05-04 03:52:00,50.0,45.0,30.07,NE,36,1.0,12.0,84,0.00,,,0.00,,2013-05-04 07:52:00,
2013-05-04 04:01:00,50.0,45.0,30.07,East,89,3.0,9.0,84,0.00,,,0.00,,2013-05-04 08:01:00,
2013-05-04 04:11:00,50.0,45.0,30.07,East,89,3.0,9.0,84,0.00,,,0.00,,2013-05-04 08:11:00,
2013-05-04 04:21:00,51.0,46.0,30.07,North,360,1.0,12.0,83,0.00,,,0.00,,2013-05-04 08:21:00,
2013-05-04 04:32:00,51.0,46.0,30.06,NE,48,1.0,10.0,83,0.00,,,0.00,,2013-05-04 08:32:00,
2013-05-04 04:42:00,51.0,46.0,30.06,NE,48,1.0,10.0,83,0.00,,,0.00,,2013-05-04 08:42:00,
2013-05-04 04:52:00,51.0,46.0,30.06,ENE,77,0.0,6.0,84,0.00,,,0.00,,2013-05-04 08:52:00,
2013-05-04 05:02:00,51.0,46.0,30.06,East,100,0.0,10.0,84,0.00,,,0.00,,2013-05-04 09:02:00,
2013-05-04 05:11:00,51.0,46.0,30.06,East,100,0.0,10.0,84,0.00,,,0.00,,2013-05-04 09:11:00,
2013-05-04 05:22:00,50.0,45.0,30.06,ENE,66,2.0,10.0,84,0.00,,,0.00,,2013-05-04 09:22:00,
2013-05-04 05:32:00,51.0,47.0,30.06,NE,47,1.0,7.0,85,0.00,,,0.00,,2013-05-04 09:32:00,
2013-05-04 05:42:00,51.0,47.0,30.06,NE,47,1.0,7.0,85,0.00,,,0.00,,2013-05-04 09:42:00,
2013-05-04 05:53:00,50.0,46.0,30.06,East,89,0.0,10.0,85,0.00,,,0.00,,2013-05-04 09:53:00,
2013-05-04 06:03:00,50.0,46.0,30.07,NE,51,0.0,11.0,85,0.00,,,0.00,,2013-05-04 10:03:00,
2013-05-04 06:12:00,50.0,46.0,30.07,NE,51,0.0,11.0,85,0.00,,,0.00,,2013-05-04 10:12:00,
2013-05-04 06:23:00,50.0,46.0,30.07,NE,56,3.0,13.0,85,0.00,,,0.00,,2013-05-04 10:23:00,
2013-05-04 06:33:00,50.0,46.0,30.07,NNW,348,0.0,9.0,85,0.00,,,0.00,,2013-05-04 10:33:00,
2013-05-04 06:42:00,50.0,46.0,30.07,NNW,348,0.0,9.0,85,0.00,,,0.00,,2013-05-04 10:42:00,
2013-05-04 06:53:00,50.0,46.0,30.07,East,89,0.0,10.0,85,0.00,,,0.00,,2013-05-04 10:53:00,
2013-05-04 07:02:00,50.0,46.0,30.08,NE,35,0.0,9.0,86,0.00,,,0.00,,2013-05-04 11:02:00,
2013-05-04 07:11:00,50.0,46.0,30.08,NE,35,0.0,9.0,86,0.00,,,0.00,,2013-05-04 11:11:00,
2013-05-04 07:21:00,51.0,47.0,30.08,ENE,78,1.0,10.0,86,0.00,,,0.00,,2013-05-04 11:21:00,
2013-05-04 07:32:00,51.0,47.0,30.08,ENE,74,1.0,10.0,86,0.00,,,0.00,,2013-05-04 11:32:00,
2013-05-04 07:44:00,51.0,47.0,30.08,ENE,74,1.0,10.0,86,0.00,,,0.00,,2013-05-04 11:44:00,
2013-05-04 08:03:00,51.0,47.0,30.08,ENE,75,0.0,4.0,86,0.00,,,0.00,,2013-05-04 12:03:00,
2013-05-04 08:14:00,51.0,47.0,30.09,East,98,0.0,10.0,86,0.00,,,0.00,,2013-05-04 12:14:00,
2013-05-04 08:30:00,51.0,47.0,30.09,NE,45,0.0,13.0,86,0.00,,,0.00,,2013-05-04 12:30:00,
2013-05-04 08:37:00,51.0,47.0,30.09,NNE,15,0.0,11.0,86,0.00,,,0.00,,2013-05-04 12:37:00,
2013-05-04 08:52:00,52.0,47.0,30.09,NNW,331,0.0,9.0,84,0.00,,,0.00,,2013-05-04 12:52:00,
2013-05-04 09:01:00,52.0,47.0,30.09,ENE,72,3.0,14.0,83,0.00,,,0.00,,2013-05-04 13:01:00,
2013-05-04 09:11:00,52.0,47.0,30.09,ENE,72,3.0,14.0,83,0.00,,,0.00,,2013-05-04 13:11:00,
2013-05-04 09:21:00,53.0,48.0,30.09,East,97,2.0,11.0,82,0.00,,,0.00,,2013-05-04 13:21:00,
2013-05-04 09:32:00,53.0,47.0,30.09,NNW,343,0.0,8.0,80,0.00,,,0.00,,2013-05-04 13:32:00,
2013-05-04 09:42:00,53.0,47.0,30.09,NNW,343,0.0,8.0,80,0.00,,,0.00,,2013-05-04 13:42:00,
2013-05-04 09:52:00,54.0,48.0,30.09,NE,40,0.0,9.0,80,0.00,,,0.00,,2013-05-04 13:52:00,
2013-05-04 10:02:00,54.0,48.0,30.09,East,85,1.0,7.0,80,0.00,,,0.00,,2013-05-04 14:02:00,
2013-05-04 10:11:00,54.0,48.0,30.09,East,85,1.0,7.0,80,0.00,,,0.00,,2013-05-04 14:11:00,
2013-05-04 10:21:00,55.0,48.0,30.09,NNW,341,1.0,9.0,76,0.00,,,0.00,,2013-05-04 14:21:00,
2013-05-04 10:32:00,55.0,48.0,30.09,North,349,0.0,9.0,76,0.00,,,0.00,,2013-05-04 14:32:00,
2013-05-04 10:42:00,55.0,48.0,30.09,North,349,0.0,9.0,76,0.00,,,0.00,,2013-05-04 14:42:00,
2013-05-04 10:52:00,55.0,49.0,30.08,NNW,333,0.0,10.0,79,0.00,,,0.00,,2013-05-04 14:52:00,
2013-05-04 11:02:00,57.0,49.0,30.08,NW,323,0.0,8.0,75,0.00,,,0.00,,2013-05-04 15:02:00,
2013-05-04 11:12:00,57.0,49.0,30.08,NW,323,0.0,8.0,75,0.00,,,0.00,,2013-05-04 15:12:00,
2013-05-04 11:22:00,57.0,48.0,30.07,ENE,70,3.0,7.0,72,0.00,,,0.00,,2013-05-04 15:22:00,
2013-05-04 11:33:00,57.0,48.0,30.08,North,10,2.0,10.0,73,0.00,,,0.00,,2013-05-04 15:33:00,
2013-05-04 11:43:00,57.0,48.0,30.08,North,10,2.0,10.0,73,0.00,,,0.00,,2013-05-04 15:43:00,
2013-05-04 11:53:00,58.0,48.0,30.08,NNE,25,5.0,11.0,69,0.00,,,0.00,,2013-05-04 15:53:00,
2013-05-04 12:03:00,58.0,47.0,30.07,NNW,337,0.0,14.0,68,0.00,,,0.00,,2013-05-04 16:03:00,
2013-05-04 12:12:00,58.0,47.0,30.07,NNW,337,0.0,14.0,68,0.00,,,0.00,,2013-05-04 16:12:00,
2013-05-04 12:22:00,60.0,48.0,30.07,ESE,104,2.0,7.0,65,0.00,,,0.00,,2013-05-04 16:22:00,
2013-05-04 12:33:00,60.0,49.0,30.06,NE,52,3.0,8.0,66,0.00,,,0.00,,2013-05-04 16:33:00,
2013-05-04 12:42:00,60.0,49.0,30.06,NE,52,3.0,8.0,66,0.00,,,0.00,,2013-05-04 16:42:00,
2013-05-04 12:52:00,61.0,48.0,30.05,ENE,62,4.0,11.0,62,0.00,,,0.00,,2013-05-04 16:52:00,
2013-05-04 13:02:00,61.0,49.0,30.04,ENE,59,6.0,16.0,64,0.00,,,0.00,,2013-05-04 17:02:00,
2013-05-04 13:12:00,61.0,49.0,30.04,ENE,59,6.0,16.0,64,0.00,,,0.00,,2013-05-04 17:12:00,
2013-05-04 13:22:00,62.0,50.0,30.04,NNW,347,1.0,13.0,64,0.00,,,0.00,,2013-05-04 17:22:00,
2013-05-04 13:32:00,63.0,50.0,30.04,NNE,20,4.0,14.0,62,0.00,,,0.00,,2013-05-04 17:32:00,
2013-05-04 13:42:00,63.0,50.0,30.04,NNE,20,4.0,14.0,62,0.00,,,0.00,,2013-05-04 17:42:00,
2013-05-04 13:52:00,62.0,49.0,30.03,ENE,64,4.0,14.0,62,0.00,,,0.00,,2013-05-04 17:52:00,
2013-05-04 14:01:00,63.0,50.0,30.03,NNE,20,6.0,15.0,62,0.00,,,0.00,,2013-05-04 18:01:00,
2013-05-04 14:12:00,63.0,50.0,30.03,NNE,20,6.0,15.0,62,0.00,,,0.00,,2013-05-04 18:12:00,
2013-05-04 14:22:00,64.0,50.0,30.03,ENE,58,5.0,14.0,60,0.00,,,0.00,,2013-05-04 18:22:00,
2013-05-04 14:32:00,65.0,51.0,30.02,NW,318,4.0,11.0,60,0.00,,,0.00,,2013-05-04 18:32:00,
2013-05-04 14:42:00,65.0,51.0,30.02,NW,318,4.0,11.0,60,0.00,,,0.00,,2013-05-04 18:42:00,
2013-05-04 14:52:00,66.0,51.0,30.01,SSW,201,6.0,12.0,59,0.00,,,0.00,,2013-05-04 18:52:00,
2013-05-04 15:01:00,66.0,52.0,30.01,North,10,1.0,15.0,60,0.00,,,0.00,,2013-05-04 19:01:00,
2013-05-04 15:11:00,66.0,52.0,30.01,North,10,1.0,15.0,60,0.00,,,0.00,,2013-05-04 19:11:00,
2013-05-04 15:21:00,67.0,50.0,30.01,ENE,64,4.0,12.0,54,0.00,,,0.00,,2013-05-04 19:21:00,
2013-05-04 15:32:00,66.0,49.0,30.00,East,88,2.0,12.0,55,0.00,,,0.00,,2013-05-04 19:32:00,
2013-05-04 15:42:00,66.0,49.0,30.00,East,88,2.0,12.0,55,0.00,,,0.00,,2013-05-04 19:42:00,
2013-05-04 15:52:00,65.0,50.0,30.00,South,185,0.0,14.0,59,0.00,,,0.00,,2013-05-04 19:52:00,
2013-05-04 16:02:00,65.0,51.0,29.99,East,79,3.0,12.0,60,0.00,,,0.00,,2013-05-04 20:02:00,
2013-05-04 16:11:00,65.0,51.0,29.99,East,79,3.0,12.0,60,0.00,,,0.00,,2013-05-04 20:11:00,
2013-05-04 16:22:00,65.0,51.0,29.99,ENE,74,3.0,12.0,60,0.00,,,0.00,,2013-05-04 20:22:00,
2013-05-04 16:32:00,66.0,50.0,29.98,East,79,3.0,13.0,56,0.00,,,0.00,,2013-05-04 20:32:00,
2013-05-04 16:42:00,66.0,50.0,29.98,East,79,3.0,13.0,56,0.00,,,0.00,,2013-05-04 20:42:00,
2013-05-04 16:52:00,65.0,51.0,29.98,NNE,25,0.0,11.0,61,0.00,,,0.00,,2013-05-04 20:52:00,
2013-05-04 17:02:00,65.0,51.0,29.99,SSE,159,1.0,4.0,60,0.00,,,0.00,,2013-05-04 21:02:00,
2013-05-04 17:12:00,65.0,51.0,29.99,SSE,159,1.0,4.0,60,0.00,,,0.00,,2013-05-04 21:12:00,
2013-05-04 17:22:00,64.0,52.0,29.99,ENE,60,0.0,3.0,65,0.00,,,0.00,,2013-05-04 21:22:00,
2013-05-04 17:33:00,64.0,51.0,29.99,NE,54,0.0,9.0,62,0.00,,,0.00,,2013-05-04 21:33:00,
2013-05-04 17:43:00,64.0,51.0,29.99,NE,54,0.0,9.0,62,0.00,,,0.00,,2013-05-04 21:43:00,
2013-05-04 17:53:00,64.0,52.0,29.99,North,360,2.0,7.0,66,0.00,,,0.00,,2013-05-04 21:53:00,
2013-05-04 18:03:00,63.0,51.0,29.99,ENE,59,3.0,6.0,65,0.00,,,0.00,,2013-05-04 22:03:00,
2013-05-04 18:12:00,63.0,51.0,29.99,ENE,59,3.0,6.0,65,0.00,,,0.00,,2013-05-04 22:12:00,
2013-05-04 18:22:00,63.0,52.0,29.99,SSE,147,5.0,12.0,67,0.00,,,0.00,,2013-05-04 22:22:00,
2013-05-04 18:33:00,62.0,51.0,29.99,NE,46,2.0,15.0,68,0.00,,,0.00,,2013-05-04 22:33:00,
2013-05-04 18:42:00,62.0,51.0,29.99,NE,46,2.0,15.0,68,0.00,,,0.00,,2013-05-04 22:42:00,
2013-05-04 18:52:00,62.0,52.0,29.99,NE,56,2.0,11.0,69,0.00,,,0.00,,2013-05-04 22:52:00,
2013-05-04 19:02:00,61.0,52.0,30.00,ENE,65,2.0,9.0,71,0.00,,,0.00,,2013-05-04 23:02:00,
2013-05-04 19:12:00,61.0,52.0,30.00,ENE,65,2.0,9.0,71,0.00,,,0.00,,2013-05-04 23:12:00,
2013-05-04 19:22:00,60.0,51.0,30.00,SE,128,2.0,14.0,73,0.00,,,0.00,,2013-05-04 23:22:00,
2013-05-04 19:32:00,60.0,52.0,30.00,ESE,110,0.0,6.0,75,0.00,,,0.00,,2013-05-04 23:32:00,
2013-05-04 19:42:00,60.0,52.0,30.00,ESE,110,0.0,6.0,75,0.00,,,0.00,,2013-05-04 23:42:00,
2013-05-04 19:52:00,59.0,51.0,30.00,ESE,112,1.0,12.0,76,0.00,,,0.00,,2013-05-04 23:52:00,
2013-05-04 20:02:00,59.0,52.0,30.01,SE,143,0.0,12.0,78,0.00,,,0.00,,2013-05-05 00:02:00,
2013-05-04 20:11:00,59.0,52.0,30.01,SE,143,0.0,12.0,78,0.00,,,0.00,,2013-05-05 00:11:00,
2013-05-04 20:22:00,58.0,51.0,30.01,ENE,74,5.0,11.0,77,0.00,,,0.00,,2013-05-05 00:22:00,
2013-05-04 20:32:00,58.0,51.0,30.01,ENE,76,0.0,11.0,78,0.00,,,0.00,,2013-05-05 00:32:00,
2013-05-04 20:42:00,58.0,51.0,30.01,ENE,76,0.0,11.0,78,0.00,,,0.00,,2013-05-05 00:42:00,
2013-05-04 20:52:00,58.0,52.0,30.02,NE,44,0.0,9.0,79,0.00,,,0.00,,2013-05-05 00:52:00,
2013-05-04 21:01:00,58.0,51.0,30.02,ENE,59,1.0,12.0,78,0.00,,,0.00,,2013-05-05 01:01:00,
2013-05-04 21:11:00,58.0,51.0,30.02,ENE,59,1.0,12.0,78,0.00,,,0.00,,2013-05-05 01:11:00,
2013-05-04 21:21:00,58.0,51.0,30.02,ESE,113,2.0,10.0,78,0.00,,,0.00,,2013-05-05 01:21:00,
2013-05-04 21:32:00,58.0,51.0,30.03,NE,53,0.0,10.0,78,0.00,,,0.00,,2013-05-05 01:32:00,
2013-05-04 21:42:00,58.0,51.0,30.03,NE,53,0.0,10.0,78,0.00,,,0.00,,2013-05-05 01:42:00,
2013-05-04 21:52:00,58.0,51.0,30.03,ENE,71,0.0,6.0,78,0.00,,,0.00,,2013-05-05 01:52:00,
2013-05-04 22:02:00,58.0,51.0,30.02,ENE,62,1.0,7.0,78,0.00,,,0.00,,2013-05-05 02:02:00,
2013-05-04 22:11:00,58.0,51.0,30.02,ENE,62,1.0,7.0,78,0.00,,,0.00,,2013-05-05 02:11:00,
2013-05-04 22:22:00,57.0,50.0,30.03,NNE,14,1.0,10.0,77,0.00,,,0.00,,2013-05-05 02:22:00,
2013-05-04 22:32:00,57.0,50.0,30.03,ESE,112,2.0,9.0,77,0.00,,,0.00,,2013-05-05 02:32:00,
2013-05-04 22:42:00,57.0,50.0,30.03,ESE,112,2.0,9.0,77,0.00,,,0.00,,2013-05-05 02:42:00,
2013-05-04 22:52:00,57.0,50.0,30.02,North,10,2.0,9.0,77,0.00,,,0.00,,2013-05-05 02:52:00,
2013-05-04 23:01:00,57.0,50.0,30.02,ENE,72,2.0,6.0,78,0.00,,,0.00,,2013-05-05 03:01:00,
2013-05-04 23:11:00,57.0,50.0,30.02,ENE,72,2.0,6.0,78,0.00,,,0.00,,2013-05-05 03:11:00,
2013-05-04 23:22:00,57.0,51.0,30.02,ENE,60,3.0,10.0,79,0.00,,,0.00,,2013-05-05 03:22:00,
2013-05-04 23:33:00,57.0,51.0,30.02,East,94,0.0,6.0,79,0.00,,,0.00,,2013-05-05 03:33:00,
2013-05-04 23:42:00,57.0,51.0,30.02,East,94,0.0,6.0,79,0.00,,,0.00,,2013-05-05 03:42:00,
2013-05-04 23:53:00,56.0,50.0,30.01,North,360,4.0,11.0,79,0.00,,,0.00,,2013-05-05 03:53:00,